Olney, TX (76374)

2:32 AM CDT on August 31, 2015 (GMT -0500)
olney | | Change Station
CLOSE
Current Station
Personal Weather Station
Location: Olney, TX
Elevation: 1220 ft
Nearby Weather Stations

Elev 1220 ft 33.37 °N, 98.76 °W | Updated 3 minutes ago

Clear
Clear
73.2 °F
Feels Like 75 °F
N
0.0
Wind Variable Wind from South

Today
High -- | Low -- °F
--% Chance of Precip.
Yesterday
High -- | Low -- °F
Precip. -- in
7:08 AM 8:01 PM
Waning Gibbous, 96% visible
Pressure 29.96 in
Visibility 10.0 miles
Clouds Clear
Heat Index 75 °F
Dew Point 62 °F
Humidity 69%
Rainfall 0.00 in
Snow Depth Not available.
UV 0 out of 12
Pollen 8.90 out of 12
Air Quality Not available.
Flu Activity Not available.
METAR KRPH 310715Z AUTO 17003KT 10SM CLR 24/18 A2996 RMK AO2 T02390177
Pressure 29.96 in
Visibility 10.0 miles
Clouds Clear
Heat Index 75 °F
Dew Point 62 °F
Humidity 69%
Rainfall 0.00 in
Snow Depth Not available.
UV 0 out of 12
Pollen 8.90 out of 12
Air Quality Not available.
Flu Activity Not available.
METAR KRPH 310715Z AUTO 17003KT 10SM CLR 24/18 A2996 RMK AO2 T02390177

10-Day Weather Forecast

×

Almanac

Astronomy

Aug. 31, 2015 Rise Set
Actual Time
Civil Twilight
Nautical Twilight
Astronomical Twilight
Moon
Length of Visible Light
Length of Day
Tomorrow will be .
, % of the Moon is Illuminated

Today's Extremes

State Highs State Lows

Community

WunderPhotos

Upload Photos

1,851,220 photos uploaded!

WunderBlogs® & News

Nearby

Air Quality

  Air Quality AQ Index Pollutant
Not available.

Snow Depth

Station Depth Elevation

Earthquake Activity

City Distance Mag. Time & Date
Minimum magnitude displayed is 2.5.

Coastal Water Temperatures

Place Temperature

Stations

Nearby Weather Stations

Station Location Temp. Windchill Dew Point Humidity Wind Precip. Elev Updated Type